TimeMST,TemperatureF,Dew PointF,Humidity,Sea Level PressureIn,VisibilityMPH,Wind Direction,Wind SpeedMPH,Gust SpeedMPH,PrecipitationIn,Events,Conditions,WindDirDegrees,DateUTC
12:53 AM,43.0,17.1,35,29.98,10.0,South,5.8,-,N/A,,Clear,190,2012-11-01 07:53:00
1:53 AM,44.1,17.1,34,29.97,10.0,SSW,9.2,-,N/A,,Clear,200,2012-11-01 08:53:00
2:53 AM,43.0,16.0,34,29.97,10.0,Variable,5.8,-,N/A,,Clear,0,2012-11-01 09:53:00
3:53 AM,42.1,15.1,34,29.96,10.0,SSW,3.5,-,N/A,,Clear,210,2012-11-01 10:53:00
4:53 AM,39.9,15.1,36,29.98,10.0,SSW,5.8,-,N/A,,Clear,200,2012-11-01 11:53:00
5:53 AM,39.0,16.0,39,30.00,10.0,SSW,3.5,-,N/A,,Clear,200,2012-11-01 12:53:00
6:53 AM,37.0,17.1,44,30.03,10.0,SSW,4.6,-,N/A,,Clear,200,2012-11-01 13:53:00
7:53 AM,42.1,16.0,35,30.04,9.0,Calm,Calm,-,N/A,,Clear,0,2012-11-01 14:53:00
8:53 AM,55.0,19.0,24,30.02,10.0,Calm,Calm,-,N/A,,Clear,0,2012-11-01 15:53:00
9:53 AM,61.0,16.0,17,30.01,10.0,North,3.5,-,N/A,,Clear,10,2012-11-01 16:53:00
10:53 AM,68.0,16.0,14,30.00,10.0,SE,6.9,-,N/A,,Clear,130,2012-11-01 17:53:00
11:53 AM,71.1,14.0,11,29.97,10.0,Variable,6.9,-,N/A,,Clear,0,2012-11-01 18:53:00
12:53 PM,72.0,6.1,8,29.94,10.0,South,11.5,19.6,N/A,,Clear,180,2012-11-01 19:53:00
1:53 PM,72.0,10.9,10,29.92,10.0,SW,8.1,-,N/A,,Clear,220,2012-11-01 20:53:00
2:53 PM,72.0,12.0,10,29.91,10.0,South,12.7,17.3,N/A,,Clear,190,2012-11-01 21:53:00
3:53 PM,70.0,10.0,10,29.91,10.0,SSW,9.2,-,N/A,,Clear,200,2012-11-01 22:53:00
4:53 PM,69.1,12.9,11,29.92,10.0,SSW,9.2,-,N/A,,Clear,200,2012-11-01 23:53:00
5:53 PM,63.0,15.1,16,29.95,10.0,SW,6.9,-,N/A,,Clear,220,2012-11-02 00:53:00
6:53 PM,57.9,15.1,19,29.97,10.0,SSW,8.1,-,N/A,,Clear,210,2012-11-02 01:53:00
7:53 PM,55.9,17.1,22,29.97,10.0,SSW,8.1,-,N/A,,Clear,200,2012-11-02 02:53:00
8:53 PM,51.1,19.0,28,29.95,10.0,South,8.1,-,N/A,,Clear,190,2012-11-02 03:53:00
9:53 PM,48.0,24.1,39,29.94,10.0,South,9.2,-,N/A,,Clear,190,2012-11-02 04:53:00
10:53 PM,48.0,19.9,33,29.92,10.0,South,9.2,-,N/A,,Clear,190,2012-11-02 05:53:00
11:53 PM,48.9,21.0,33,29.91,10.0,SSW,8.1,-,N/A,,Clear,200,2012-11-02 06:53:00